sensor_id;sensor_type;location;lat;lon;timestamp;pressure;altitude;pressure_sealevel;temperature;humidity
7888;BME280;3989;48.810;9.208;2023-03-16T09:30:20;98848.13;;;4.21;100.00
7888;BME280;3989;48.810;9.208;2023-03-16T09:41:35;98961.25;;;5.99;100.00
7888;BME280;3989;48.810;9.208;2023-03-16T09:44:32;99045.63;;;6.67;100.00
7888;BME280;3989;48.810;9.208;2023-03-16T09:47:16;99040.34;;;6.85;100.00
7888;BME280;3989;48.810;9.208;2023-03-16T09:49:58;98980.22;;;6.76;100.00
7888;BME280;3989;48.810;9.208;2023-03-16T09:52:49;99031.06;;;7.34;100.00
7888;BME280;3989;48.810;9.208;2023-03-16T09:55:26;98879.59;;;6.74;100.00
7888;BME280;3989;48.810;9.208;2023-03-16T09:57:57;99040.56;;;7.80;100.00
7888;BME280;3989;48.810;9.208;2023-03-16T10:00:26;99020.06;;;7.90;100.00
7888;BME280;3989;48.810;9.208;2023-03-16T10:03:14;98876.00;;;7.01;100.00
7888;BME280;3989;48.810;9.208;2023-03-16T10:05:43;98861.03;;;7.18;100.00
7888;BME280;3989;48.810;9.208;2023-03-16T10:08:13;98892.38;;;7.66;100.00
7888;BME280;3989;48.810;9.208;2023-03-16T10:11:04;98969.97;;;8.37;100.00
7888;BME280;3989;48.810;9.208;2023-03-16T10:13:37;98872.91;;;7.91;100.00
7888;BME280;3989;48.810;9.208;2023-03-16T10:16:10;98986.47;;;8.90;100.00
7888;BME280;3989;48.810;9.208;2023-03-16T10:18:44;98973.66;;;9.02;100.00
7888;BME280;3989;48.810;9.208;2023-03-16T10:21:14;98963.66;;;8.96;100.00
7888;BME280;3989;48.810;9.208;2023-03-16T10:23:41;98923.25;;;8.92;100.00
7888;BME280;3989;48.810;9.208;2023-03-16T10:26:14;99011.31;;;9.47;100.00
7888;BME280;3989;48.810;9.208;2023-03-16T10:28:43;99013.31;;;9.54;98.87
7888;BME280;3989;48.810;9.208;2023-03-16T10:31:12;99015.63;;;9.57;100.00
7888;BME280;3989;48.810;9.208;2023-03-16T10:33:39;98885.16;;;8.84;92.60
7888;BME280;3989;48.810;9.208;2023-03-16T10:36:18;98995.69;;;9.69;100.00
7888;BME280;3989;48.810;9.208;2023-03-16T10:38:51;98964.53;;;9.69;100.00
7888;BME280;3989;48.810;9.208;2023-03-16T10:41:26;98995.63;;;10.01;100.00
7888;BME280;3989;48.810;9.208;2023-03-16T10:43:55;98989.47;;;10.00;91.27
7888;BME280;3989;48.810;9.208;2023-03-16T10:46:23;98940.03;;;9.74;100.00
7888;BME280;3989;48.810;9.208;2023-03-16T10:48:53;98988.63;;;10.00;85.56
7888;BME280;3989;48.810;9.208;2023-03-16T10:51:26;98992.63;;;10.04;77.84
7888;BME280;3989;48.810;9.208;2023-03-16T10:54:00;98965.47;;;9.92;78.86
7888;BME280;3989;48.810;9.208;2023-03-16T10:56:32;98984.22;;;10.31;91.77
7888;BME280;3989;48.810;9.208;2023-03-16T10:58:59;98871.22;;;9.85;72.31
7888;BME280;3989;48.810;9.208;2023-03-16T11:01:27;98976.84;;;10.41;61.20
7888;BME280;3989;48.810;9.208;2023-03-16T11:03:55;98908.00;;;9.98;71.60
7888;BME280;3989;48.810;9.208;2023-03-16T11:06:26;98961.69;;;10.42;66.24
7888;BME280;3989;48.810;9.208;2023-03-16T11:09:02;98821.34;;;9.55;66.37
7888;BME280;3989;48.810;9.208;2023-03-16T11:11:33;98961.81;;;10.48;68.80
7888;BME280;3989;48.810;9.208;2023-03-16T11:14:02;98849.56;;;9.80;67.14
7888;BME280;3989;48.810;9.208;2023-03-16T11:16:33;98913.44;;;10.21;64.65
7888;BME280;3989;48.810;9.208;2023-03-16T11:19:08;98922.72;;;10.25;57.92
7888;BME280;3989;48.810;9.208;2023-03-16T11:21:44;98912.47;;;10.14;56.54
7888;BME280;3989;48.810;9.208;2023-03-16T11:24:19;98882.19;;;9.90;57.56
7888;BME280;3989;48.810;9.208;2023-03-16T11:26:53;98916.94;;;10.05;58.08
7888;BME280;3989;48.810;9.208;2023-03-16T11:29:23;98951.63;;;10.52;58.69
7888;BME280;3989;48.810;9.208;2023-03-16T11:31:54;98934.09;;;10.58;59.65
7888;BME280;3989;48.810;9.208;2023-03-16T11:34:27;98912.63;;;10.74;58.93
7888;BME280;3989;48.810;9.208;2023-03-16T11:37:00;98901.81;;;10.75;55.63
7888;BME280;3989;48.810;9.208;2023-03-16T11:39:34;98941.09;;;10.59;53.94
7888;BME280;3989;48.810;9.208;2023-03-16T11:42:15;98938.06;;;10.62;56.73
7888;BME280;3989;48.810;9.208;2023-03-16T11:44:51;98919.41;;;10.62;55.61
7888;BME280;3989;48.810;9.208;2023-03-16T11:47:46;98879.47;;;10.45;55.19
7888;BME280;3989;48.810;9.208;2023-03-16T11:50:18;98939.84;;;11.00;54.49
7888;BME280;3989;48.810;9.208;2023-03-16T11:52:56;98939.06;;;11.14;52.77
7888;BME280;3989;48.810;9.208;2023-03-16T11:55:31;98932.78;;;11.30;52.60
7888;BME280;3989;48.810;9.208;2023-03-16T11:58:13;98884.81;;;11.14;51.52
7888;BME280;3989;48.810;9.208;2023-03-16T12:00:50;98891.13;;;11.35;51.09
7888;BME280;3989;48.810;9.208;2023-03-16T12:06:33;98865.63;;;11.47;51.04
7888;BME280;3989;48.810;9.208;2023-03-16T12:09:21;98890.81;;;11.68;50.05
7888;BME280;3989;48.810;9.208;2023-03-16T12:11:58;98906.16;;;11.74;48.69
7888;BME280;3989;48.810;9.208;2023-03-16T12:14:29;98755.31;;;10.95;49.39
7888;BME280;3989;48.810;9.208;2023-03-16T12:17:02;98780.66;;;11.14;49.27
7888;BME280;3989;48.810;9.208;2023-03-16T12:19:38;98840.56;;;11.48;49.04
7888;BME280;3989;48.810;9.208;2023-03-16T12:22:12;98876.75;;;11.88;49.78
7888;BME280;3989;48.810;9.208;2023-03-16T12:24:43;98896.22;;;12.12;49.18
7888;BME280;3989;48.810;9.208;2023-03-16T12:27:14;98769.22;;;11.34;47.85
7888;BME280;3989;48.810;9.208;2023-03-16T12:29:51;98854.25;;;11.97;46.81
7888;BME280;3989;48.810;9.208;2023-03-16T12:32:28;98843.97;;;12.30;46.60
7888;BME280;3989;48.810;9.208;2023-03-16T12:35:04;98891.38;;;12.93;46.87
7888;BME280;3989;48.810;9.208;2023-03-16T12:37:34;98885.97;;;13.29;46.46
7888;BME280;3989;48.810;9.208;2023-03-16T12:40:14;98744.84;;;12.87;45.87
7888;BME280;3989;48.810;9.208;2023-03-16T12:42:59;98744.16;;;13.28;43.89
7888;BME280;3989;48.810;9.208;2023-03-16T12:45:34;98725.50;;;13.13;44.63
7888;BME280;3989;48.810;9.208;2023-03-16T12:48:09;98839.75;;;14.24;44.26
7888;BME280;3989;48.810;9.208;2023-03-16T12:50:47;98851.88;;;14.54;43.48
7888;BME280;3989;48.810;9.208;2023-03-16T12:53:24;98769.72;;;13.64;43.25
7888;BME280;3989;48.810;9.208;2023-03-16T12:55:54;98858.88;;;14.07;43.71
7888;BME280;3989;48.810;9.208;2023-03-16T12:58:23;98860.28;;;14.03;43.62
7888;BME280;3989;48.810;9.208;2023-03-16T13:00:57;98779.69;;;13.43;42.92
7888;BME280;3989;48.810;9.208;2023-03-16T13:03:25;98858.84;;;13.66;43.04
7888;BME280;3989;48.810;9.208;2023-03-16T13:05:55;98598.81;;;11.66;43.86
7888;BME280;3989;48.810;9.208;2023-03-16T13:08:23;98844.81;;;12.73;44.93
7888;BME280;3989;48.810;9.208;2023-03-16T13:11:05;98790.94;;;12.19;45.52
7888;BME280;3989;48.810;9.208;2023-03-16T13:13:34;98855.28;;;12.47;46.21
7888;BME280;3989;48.810;9.208;2023-03-16T13:16:05;98846.59;;;12.45;46.36
7888;BME280;3989;48.810;9.208;2023-03-16T13:18:36;98837.66;;;12.38;46.41
7888;BME280;3989;48.810;9.208;2023-03-16T13:21:14;98846.66;;;12.51;45.92
7888;BME280;3989;48.810;9.208;2023-03-16T13:23:50;98855.81;;;12.78;46.86
7888;BME280;3989;48.810;9.208;2023-03-16T13:26:30;98853.66;;;13.09;45.46
7888;BME280;3989;48.810;9.208;2023-03-16T13:29:09;98841.56;;;12.99;44.88
7888;BME280;3989;48.810;9.208;2023-03-16T13:31:43;98843.00;;;13.16;44.83
7888;BME280;3989;48.810;9.208;2023-03-16T13:34:13;98829.53;;;13.31;44.64
7888;BME280;3989;48.810;9.208;2023-03-16T13:36:40;98786.81;;;12.80;44.17
7888;BME280;3989;48.810;9.208;2023-03-16T13:39:13;98834.63;;;13.04;44.60
7888;BME280;3989;48.810;9.208;2023-03-16T13:41:42;98792.75;;;12.54;44.05
7888;BME280;3989;48.810;9.208;2023-03-16T13:44:13;98707.22;;;12.04;44.82
7888;BME280;3989;48.810;9.208;2023-03-16T13:46:40;98791.81;;;12.62;44.33
7888;BME280;3989;48.810;9.208;2023-03-16T13:49:10;98808.75;;;12.90;43.86
7888;BME280;3989;48.810;9.208;2023-03-16T13:51:37;98807.53;;;13.14;44.16
7888;BME280;3989;48.810;9.208;2023-03-16T13:54:17;98822.72;;;13.35;43.29
7888;BME280;3989;48.810;9.208;2023-03-16T13:56:46;98709.94;;;12.74;43.38
7888;BME280;3989;48.810;9.208;2023-03-16T13:59:13;98773.72;;;13.13;43.27
7888;BME280;3989;48.810;9.208;2023-03-16T14:01:43;98796.47;;;13.24;44.01
7888;BME280;3989;48.810;9.208;2023-03-16T14:04:11;98814.09;;;13.39;43.39
7888;BME280;3989;48.810;9.208;2023-03-16T14:06:40;98813.63;;;13.63;43.43
7888;BME280;3989;48.810;9.208;2023-03-16T14:09:14;98691.28;;;13.15;43.66
7888;BME280;3989;48.810;9.208;2023-03-16T14:11:42;98794.63;;;13.99;42.85
7888;BME280;3989;48.810;9.208;2023-03-16T14:14:15;98797.47;;;13.85;42.26
7888;BME280;3989;48.810;9.208;2023-03-16T14:16:42;98776.13;;;13.70;43.14
7888;BME280;3989;48.810;9.208;2023-03-16T14:19:16;98776.97;;;13.71;43.06
7888;BME280;3989;48.810;9.208;2023-03-16T14:21:44;98785.03;;;13.77;42.92
7888;BME280;3989;48.810;9.208;2023-03-16T14:24:22;98766.34;;;13.49;43.86
7888;BME280;3989;48.810;9.208;2023-03-16T14:26:49;98665.03;;;13.04;43.55
7888;BME280;3989;48.810;9.208;2023-03-16T14:29:22;98770.44;;;13.93;43.21
7888;BME280;3989;48.810;9.208;2023-03-16T14:31:50;98747.78;;;13.95;41.97
7888;BME280;3989;48.810;9.208;2023-03-16T14:34:21;98755.06;;;14.14;41.90
7888;BME280;3989;48.810;9.208;2023-03-16T14:37:04;98759.81;;;14.19;40.73
7888;BME280;3989;48.810;9.208;2023-03-16T14:39:31;98730.91;;;14.14;41.16
7888;BME280;3989;48.810;9.208;2023-03-16T14:42:01;98663.53;;;13.83;41.17
7888;BME280;3989;48.810;9.208;2023-03-16T14:44:32;98737.19;;;14.41;41.39
7888;BME280;3989;48.810;9.208;2023-03-16T14:47:01;98678.47;;;13.99;40.72
7888;BME280;3989;48.810;9.208;2023-03-16T14:49:31;98721.63;;;14.24;40.91
7888;BME280;3989;48.810;9.208;2023-03-16T14:52:01;98742.53;;;14.35;41.14
7888;BME280;3989;48.810;9.208;2023-03-16T14:54:28;98741.88;;;14.33;40.96
7888;BME280;3989;48.810;9.208;2023-03-16T14:56:59;98717.28;;;14.23;41.62
7888;BME280;3989;48.810;9.208;2023-03-16T14:59:26;98740.50;;;14.50;41.13
7888;BME280;3989;48.810;9.208;2023-03-16T15:01:55;98728.72;;;14.51;41.07
7888;BME280;3989;48.810;9.208;2023-03-16T15:04:25;98652.81;;;13.90;40.45
7888;BME280;3989;48.810;9.208;2023-03-16T15:06:53;98753.53;;;14.46;41.31
7888;BME280;3989;48.810;9.208;2023-03-16T15:09:38;98750.44;;;14.49;41.25
7888;BME280;3989;48.810;9.208;2023-03-16T15:12:13;98677.00;;;14.09;41.24
7888;BME280;3989;48.810;9.208;2023-03-16T15:14:39;98619.38;;;13.79;41.33
7888;BME280;3989;48.810;9.208;2023-03-16T15:17:25;98737.63;;;14.71;41.08
7888;BME280;3989;48.810;9.208;2023-03-16T15:19:51;98750.44;;;14.69;40.79
7888;BME280;3989;48.810;9.208;2023-03-16T15:22:23;98676.44;;;14.27;40.71
7888;BME280;3989;48.810;9.208;2023-03-16T15:24:50;98706.44;;;14.57;41.11
7888;BME280;3989;48.810;9.208;2023-03-16T15:27:19;98740.13;;;14.99;41.14
7888;BME280;3989;48.810;9.208;2023-03-16T15:29:47;98704.53;;;15.10;40.27
7888;BME280;3989;48.810;9.208;2023-03-16T15:32:14;98731.75;;;15.46;39.15
7888;BME280;3989;48.810;9.208;2023-03-16T15:34:43;98698.13;;;15.17;39.46
7888;BME280;3989;48.810;9.208;2023-03-16T15:37:12;98719.41;;;15.19;40.11
7888;BME280;3989;48.810;9.208;2023-03-16T15:39:40;98725.84;;;15.05;40.50
7888;BME280;3989;48.810;9.208;2023-03-16T15:42:12;98723.38;;;14.64;40.01
7888;BME280;3989;48.810;9.208;2023-03-16T15:44:40;98654.72;;;14.15;41.51
7888;BME280;3989;48.810;9.208;2023-03-16T15:47:07;98709.53;;;14.54;41.13
7888;BME280;3989;48.810;9.208;2023-03-16T15:49:35;98711.56;;;14.39;40.78
7888;BME280;3989;48.810;9.208;2023-03-16T15:52:03;98732.88;;;14.60;41.39
7888;BME280;3989;48.810;9.208;2023-03-16T15:54:32;98734.28;;;14.36;41.44
7888;BME280;3989;48.810;9.208;2023-03-16T15:57:01;98733.22;;;14.24;42.08
7888;BME280;3989;48.810;9.208;2023-03-16T15:59:30;98726.97;;;14.10;42.60
7888;BME280;3989;48.810;9.208;2023-03-16T16:02:00;98674.84;;;13.72;43.36
7888;BME280;3989;48.810;9.208;2023-03-16T16:04:27;98725.50;;;13.95;43.37
7888;BME280;3989;48.810;9.208;2023-03-16T16:06:54;98701.84;;;13.64;43.72
7888;BME280;3989;48.810;9.208;2023-03-16T16:09:23;98607.84;;;12.90;43.44
7888;BME280;3989;48.810;9.208;2023-03-16T16:11:50;98583.69;;;12.77;43.29
7888;BME280;3989;48.810;9.208;2023-03-16T16:14:20;98724.03;;;13.45;43.43
7888;BME280;3989;48.810;9.208;2023-03-16T16:16:48;98724.59;;;13.34;43.75
7888;BME280;3989;48.810;9.208;2023-03-16T16:19:15;98698.44;;;13.08;44.01
7888;BME280;3989;48.810;9.208;2023-03-16T16:21:43;98725.50;;;13.13;44.24
7888;BME280;3989;48.810;9.208;2023-03-16T16:24:10;98677.97;;;12.66;44.79
7888;BME280;3989;48.810;9.208;2023-03-16T16:26:40;98678.69;;;12.53;44.79
7888;BME280;3989;48.810;9.208;2023-03-16T16:29:11;98721.81;;;12.93;45.59
7888;BME280;3989;48.810;9.208;2023-03-16T16:31:38;98723.25;;;12.89;45.57
7888;BME280;3989;48.810;9.208;2023-03-16T16:34:10;98729.72;;;12.80;45.88
7888;BME280;3989;48.810;9.208;2023-03-16T16:36:37;98725.31;;;12.66;46.37
7888;BME280;3989;48.810;9.208;2023-03-16T16:39:04;98629.00;;;11.81;47.14
7888;BME280;3989;48.810;9.208;2023-03-16T16:41:32;98741.25;;;12.31;47.82
7888;BME280;3989;48.810;9.208;2023-03-16T16:44:02;98526.78;;;10.86;48.31
7888;BME280;3989;48.810;9.208;2023-03-16T16:46:36;98714.91;;;11.92;49.21
7888;BME280;3989;48.810;9.208;2023-03-16T16:49:06;98697.34;;;11.54;50.00
7888;BME280;3989;48.810;9.208;2023-03-16T16:51:35;98681.25;;;11.33;50.25
7888;BME280;3989;48.810;9.208;2023-03-16T16:54:12;98552.50;;;10.43;51.53
7888;BME280;3989;48.810;9.208;2023-03-16T16:56:41;98681.44;;;10.87;51.48
7888;BME280;3989;48.810;9.208;2023-03-16T16:59:14;98657.13;;;10.68;51.89
7888;BME280;3989;48.810;9.208;2023-03-16T17:01:42;98707.16;;;10.88;52.24
7888;BME280;3989;48.810;9.208;2023-03-16T17:04:12;98709.78;;;10.74;52.77
7888;BME280;3989;48.810;9.208;2023-03-16T17:06:40;98516.69;;;9.48;53.53
7888;BME280;3989;48.810;9.208;2023-03-16T17:09:06;98656.84;;;10.25;53.92
7888;BME280;3989;48.810;9.208;2023-03-16T17:11:35;98711.72;;;10.42;54.58
7888;BME280;3989;48.810;9.208;2023-03-16T17:14:04;98684.94;;;10.13;58.21
7888;BME280;3989;48.810;9.208;2023-03-16T17:16:34;98685.16;;;10.03;58.09
7888;BME280;3989;48.810;9.208;2023-03-16T17:19:02;98606.75;;;9.44;59.54
7888;BME280;3989;48.810;9.208;2023-03-16T17:21:31;98668.03;;;9.75;60.56
7888;BME280;3989;48.810;9.208;2023-03-16T17:23:57;98662.13;;;9.57;61.36
7888;BME280;3989;48.810;9.208;2023-03-16T17:26:26;98701.50;;;9.78;60.98
7888;BME280;3989;48.810;9.208;2023-03-16T17:28:56;98563.31;;;8.82;61.07
7888;BME280;3989;48.810;9.208;2023-03-16T17:31:27;98596.56;;;8.86;62.01
7888;BME280;3989;48.810;9.208;2023-03-16T17:33:57;98613.72;;;8.84;62.55
7888;BME280;3989;48.810;9.208;2023-03-16T17:36:27;98526.28;;;8.18;63.00
7888;BME280;3989;48.810;9.208;2023-03-16T17:38:54;98612.09;;;8.67;64.01
7888;BME280;3989;48.810;9.208;2023-03-16T17:41:22;98608.50;;;8.52;64.12
7888;BME280;3989;48.810;9.208;2023-03-16T17:43:52;98533.13;;;7.96;64.87
7888;BME280;3989;48.810;9.208;2023-03-16T17:46:21;98697.34;;;8.89;65.52
7888;BME280;3989;48.810;9.208;2023-03-16T17:48:48;98710.50;;;8.91;66.36
7888;BME280;3989;48.810;9.208;2023-03-16T17:51:20;98713.16;;;8.91;65.85
7888;BME280;3989;48.810;9.208;2023-03-16T17:53:47;98713.50;;;8.88;65.36
7888;BME280;3989;48.810;9.208;2023-03-16T17:56:16;98715.34;;;8.79;66.06
7888;BME280;3989;48.810;9.208;2023-03-16T17:58:44;98702.75;;;8.65;66.96
7888;BME280;3989;48.810;9.208;2023-03-16T18:01:11;98522.03;;;7.60;67.47
7888;BME280;3989;48.810;9.208;2023-03-16T18:03:39;98709.34;;;8.69;68.09
7888;BME280;3989;48.810;9.208;2023-03-16T18:06:14;98570.50;;;7.86;67.62
7888;BME280;3989;48.810;9.208;2023-03-16T18:08:43;98590.91;;;8.10;67.18
7888;BME280;3989;48.810;9.208;2023-03-16T18:11:15;98666.31;;;8.58;65.87
7888;BME280;3989;48.810;9.208;2023-03-16T18:13:42;98647.41;;;8.53;65.31
7888;BME280;3989;48.810;9.208;2023-03-16T18:16:14;98716.63;;;9.00;64.67
7888;BME280;3989;48.810;9.208;2023-03-16T18:18:41;98650.53;;;8.64;65.18
7888;BME280;3989;48.810;9.208;2023-03-16T18:21:11;98725.63;;;8.90;64.89
7888;BME280;3989;48.810;9.208;2023-03-16T18:23:43;98714.00;;;8.83;65.21
7888;BME280;3989;48.810;9.208;2023-03-16T18:26:10;98583.47;;;7.98;67.36
7888;BME280;3989;48.810;9.208;2023-03-16T18:28:37;98379.69;;;6.62;68.67
7888;BME280;3989;48.810;9.208;2023-03-16T18:31:04;98707.38;;;8.71;69.75
7888;BME280;3989;48.810;9.208;2023-03-16T18:33:37;98552.72;;;7.63;69.89
7888;BME280;3989;48.810;9.208;2023-03-16T18:36:09;98714.03;;;8.75;68.91
7888;BME280;3989;48.810;9.208;2023-03-16T18:38:42;98500.28;;;7.40;69.68
7888;BME280;3989;48.810;9.208;2023-03-16T18:41:14;98653.22;;;8.08;71.08
7888;BME280;3989;48.810;9.208;2023-03-16T18:43:41;98583.94;;;7.77;73.02
7888;BME280;3989;48.810;9.208;2023-03-16T18:46:19;98699.75;;;8.44;73.84
7888;BME280;3989;48.810;9.208;2023-03-16T18:48:48;98603.88;;;7.81;75.64
7888;BME280;3989;48.810;9.208;2023-03-16T18:51:15;98598.41;;;7.74;75.96
7888;BME280;3989;48.810;9.208;2023-03-16T18:53:41;98702.72;;;8.25;77.91
7888;BME280;3989;48.810;9.208;2023-03-16T18:56:16;98695.78;;;8.32;77.80
7888;BME280;3989;48.810;9.208;2023-03-16T18:58:44;98633.59;;;7.92;78.18
7888;BME280;3989;48.810;9.208;2023-03-16T19:01:22;98587.91;;;7.49;79.24
7888;BME280;3989;48.810;9.208;2023-03-16T19:03:50;98505.84;;;6.81;81.11
7888;BME280;3989;48.810;9.208;2023-03-16T19:06:21;98601.03;;;7.42;84.10
7888;BME280;3989;48.810;9.208;2023-03-16T19:08:49;98664.81;;;7.82;83.43
7888;BME280;3989;48.810;9.208;2023-03-16T19:11:17;98696.72;;;8.15;83.40
7888;BME280;3989;48.810;9.208;2023-03-16T19:13:44;98705.22;;;8.10;83.87
7888;BME280;3989;48.810;9.208;2023-03-16T19:16:14;98521.81;;;7.05;84.00
7888;BME280;3989;48.810;9.208;2023-03-16T19:18:42;98683.13;;;8.10;84.30
7888;BME280;3989;48.810;9.208;2023-03-16T19:21:12;98651.38;;;7.92;84.52
7888;BME280;3989;48.810;9.208;2023-03-16T19:23:43;98427.38;;;6.46;84.22
7888;BME280;3989;48.810;9.208;2023-03-16T19:26:11;98655.34;;;7.72;85.61
7888;BME280;3989;48.810;9.208;2023-03-16T19:28:42;98636.88;;;7.54;86.82
7888;BME280;3989;48.810;9.208;2023-03-16T19:31:15;98536.38;;;6.93;87.72
7888;BME280;3989;48.810;9.208;2023-03-16T19:33:43;98665.09;;;7.63;88.77
7888;BME280;3989;48.810;9.208;2023-03-16T19:36:14;98635.84;;;7.39;89.04
7888;BME280;3989;48.810;9.208;2023-03-16T19:38:42;98591.81;;;7.04;89.49
7888;BME280;3989;48.810;9.208;2023-03-16T19:41:19;98663.38;;;7.38;90.85
7888;BME280;3989;48.810;9.208;2023-03-16T19:43:48;98694.44;;;7.46;92.02
7888;BME280;3989;48.810;9.208;2023-03-16T19:46:16;98705.66;;;7.31;93.04
7888;BME280;3989;48.810;9.208;2023-03-16T19:48:43;98461.41;;;5.91;95.99
7888;BME280;3989;48.810;9.208;2023-03-16T19:51:12;98466.00;;;5.89;95.59
7888;BME280;3989;48.810;9.208;2023-03-16T19:53:40;98559.66;;;6.31;98.04
7888;BME280;3989;48.810;9.208;2023-03-16T19:56:11;98676.94;;;7.19;97.14
7888;BME280;3989;48.810;9.208;2023-03-16T19:58:40;98634.47;;;6.85;96.37
7888;BME280;3989;48.810;9.208;2023-03-16T20:01:15;98621.34;;;6.75;96.73
7888;BME280;3989;48.810;9.208;2023-03-16T20:03:44;98581.72;;;6.40;98.75
7888;BME280;3989;48.810;9.208;2023-03-16T20:06:12;98617.88;;;6.75;99.04
7888;BME280;3989;48.810;9.208;2023-03-16T20:08:40;98625.53;;;6.78;98.54
7888;BME280;3989;48.810;9.208;2023-03-16T20:11:14;98572.78;;;6.41;98.58
7888;BME280;3989;48.810;9.208;2023-03-16T20:13:42;98668.56;;;7.06;97.81
7888;BME280;3989;48.810;9.208;2023-03-16T20:16:14;98645.41;;;6.82;98.70
7888;BME280;3989;48.810;9.208;2023-03-16T20:18:42;98677.63;;;6.87;99.48
7888;BME280;3989;48.810;9.208;2023-03-16T20:21:12;98652.28;;;6.67;100.00
7888;BME280;3989;48.810;9.208;2023-03-16T20:23:40;98643.31;;;6.60;100.00
7888;BME280;3989;48.810;9.208;2023-03-16T20:26:14;98654.91;;;6.59;100.00
7888;BME280;3989;48.810;9.208;2023-03-16T20:28:42;98670.00;;;6.58;100.00
7888;BME280;3989;48.810;9.208;2023-03-16T20:31:16;98630.84;;;6.26;100.00
7888;BME280;3989;48.810;9.208;2023-03-16T20:33:43;98637.56;;;6.21;100.00
7888;BME280;3989;48.810;9.208;2023-03-16T20:36:10;98624.59;;;6.10;100.00
7888;BME280;3989;48.810;9.208;2023-03-16T20:38:37;98592.22;;;5.80;100.00
7888;BME280;3989;48.810;9.208;2023-03-16T20:41:10;98670.28;;;6.29;100.00
7888;BME280;3989;48.810;9.208;2023-03-16T20:43:38;98554.09;;;5.56;100.00
7888;BME280;3989;48.810;9.208;2023-03-16T20:46:05;98604.16;;;6.02;100.00
7888;BME280;3989;48.810;9.208;2023-03-16T20:48:33;98678.56;;;6.52;100.00
7888;BME280;3989;48.810;9.208;2023-03-16T20:51:00;98677.94;;;6.58;100.00
7888;BME280;3989;48.810;9.208;2023-03-16T20:53:27;98647.31;;;6.38;100.00
7888;BME280;3989;48.810;9.208;2023-03-16T20:55:53;98676.59;;;6.54;100.00
7888;BME280;3989;48.810;9.208;2023-03-16T20:58:22;98657.56;;;6.33;100.00
7888;BME280;3989;48.810;9.208;2023-03-16T21:00:50;98633.28;;;6.20;100.00
7888;BME280;3989;48.810;9.208;2023-03-16T21:03:20;98680.28;;;6.36;100.00
7888;BME280;3989;48.810;9.208;2023-03-16T21:05:49;98655.78;;;6.16;100.00
7888;BME280;3989;48.810;9.208;2023-03-16T21:08:16;98675.69;;;6.20;100.00
7888;BME280;3989;48.810;9.208;2023-03-16T21:10:45;98679.00;;;6.22;100.00
7888;BME280;3989;48.810;9.208;2023-03-16T21:13:17;98672.72;;;6.23;100.00
7888;BME280;3989;48.810;9.208;2023-03-16T21:15:44;98626.81;;;5.97;100.00
7888;BME280;3989;48.810;9.208;2023-03-16T21:18:15;98660.19;;;6.07;100.00
7888;BME280;3989;48.810;9.208;2023-03-16T21:20:42;98635.56;;;5.79;100.00
7888;BME280;3989;48.810;9.208;2023-03-16T21:23:13;98640.72;;;5.81;100.00
7888;BME280;3989;48.810;9.208;2023-03-16T21:25:44;98657.94;;;5.85;100.00
7888;BME280;3989;48.810;9.208;2023-03-16T21:28:12;98624.59;;;5.57;100.00
7888;BME280;3989;48.810;9.208;2023-03-16T21:30:41;98657.34;;;5.73;100.00
7888;BME280;3989;48.810;9.208;2023-03-16T21:33:16;98654.72;;;5.73;100.00
7888;BME280;3989;48.810;9.208;2023-03-16T21:35:43;98636.63;;;5.51;100.00
7888;BME280;3989;48.810;9.208;2023-03-16T21:38:15;98652.00;;;5.65;100.00
7888;BME280;3989;48.810;9.208;2023-03-16T21:40:42;98646.00;;;5.63;100.00
7888;BME280;3989;48.810;9.208;2023-03-16T21:43:09;98649.19;;;5.67;100.00
7888;BME280;3989;48.810;9.208;2023-03-16T21:45:36;98646.41;;;5.68;100.00
7888;BME280;3989;48.810;9.208;2023-03-16T21:48:03;98587.22;;;5.24;100.00
7888;BME280;3989;48.810;9.208;2023-03-16T21:50:31;98649.09;;;5.76;100.00
7888;BME280;3989;48.810;9.208;2023-03-16T21:52:58;98645.31;;;5.79;100.00
7888;BME280;3989;48.810;9.208;2023-03-16T21:55:28;98645.28;;;5.89;100.00
7888;BME280;3989;48.810;9.208;2023-03-16T21:57:57;98636.72;;;5.95;100.00
7888;BME280;3989;48.810;9.208;2023-03-16T22:00:25;98640.38;;;5.94;100.00
7888;BME280;3989;48.810;9.208;2023-03-16T22:02:54;98637.41;;;5.97;100.00
7888;BME280;3989;48.810;9.208;2023-03-16T22:08:01;98634.06;;;5.95;100.00
7888;BME280;3989;48.810;9.208;2023-03-16T22:10:29;98626.91;;;5.87;100.00
7888;BME280;3989;48.810;9.208;2023-03-16T22:12:56;98604.53;;;5.72;100.00
7888;BME280;3989;48.810;9.208;2023-03-16T22:15:24;98636.22;;;5.91;100.00
7888;BME280;3989;48.810;9.208;2023-03-16T22:17:52;98630.66;;;5.85;100.00
7888;BME280;3989;48.810;9.208;2023-03-16T22:20:21;98625.81;;;5.80;100.00
7888;BME280;3989;48.810;9.208;2023-03-16T22:22:49;98603.50;;;5.65;100.00
7888;BME280;3989;48.810;9.208;2023-03-16T22:25:18;98621.59;;;5.87;100.00
7888;BME280;3989;48.810;9.208;2023-03-16T22:27:47;98628.81;;;5.85;100.00
7888;BME280;3989;48.810;9.208;2023-03-16T22:30:17;98618.69;;;5.80;100.00
7888;BME280;3989;48.810;9.208;2023-03-16T22:32:45;98621.88;;;5.84;100.00
7888;BME280;3989;48.810;9.208;2023-03-16T22:35:32;98619.38;;;5.82;100.00
7888;BME280;3989;48.810;9.208;2023-03-16T22:38:02;98614.25;;;5.81;100.00
7888;BME280;3989;48.810;9.208;2023-03-16T22:40:32;98614.84;;;5.75;100.00
7888;BME280;3989;48.810;9.208;2023-03-16T22:43:03;98613.09;;;5.66;100.00
7888;BME280;3989;48.810;9.208;2023-03-16T22:45:32;98619.59;;;5.54;100.00
7888;BME280;3989;48.810;9.208;2023-03-16T22:48:01;98610.66;;;5.37;100.00
7888;BME280;3989;48.810;9.208;2023-03-16T22:50:30;98580.88;;;5.17;100.00
7888;BME280;3989;48.810;9.208;2023-03-16T22:53:02;98601.81;;;5.28;100.00
7888;BME280;3989;48.810;9.208;2023-03-16T22:55:32;98598.56;;;5.17;100.00
7888;BME280;3989;48.810;9.208;2023-03-16T22:58:05;98598.03;;;5.13;100.00
7888;BME280;3989;48.810;9.208;2023-03-16T23:00:33;98602.63;;;5.11;100.00
7888;BME280;3989;48.810;9.208;2023-03-16T23:03:00;98597.94;;;5.05;100.00
7888;BME280;3989;48.810;9.208;2023-03-16T23:05:27;98598.53;;;4.99;100.00
7888;BME280;3989;48.810;9.208;2023-03-16T23:07:55;98598.28;;;4.93;100.00
7888;BME280;3989;48.810;9.208;2023-03-16T23:10:25;98554.94;;;4.58;100.00
7888;BME280;3989;48.810;9.208;2023-03-16T23:12:54;98562.03;;;4.58;100.00
7888;BME280;3989;48.810;9.208;2023-03-16T23:15:24;98563.81;;;4.57;100.00
7888;BME280;3989;48.810;9.208;2023-03-16T23:17:51;98597.84;;;4.70;100.00
7888;BME280;3989;48.810;9.208;2023-03-16T23:20:20;98595.78;;;4.64;100.00
7888;BME280;3989;48.810;9.208;2023-03-16T23:22:47;98580.41;;;4.50;100.00
7888;BME280;3989;48.810;9.208;2023-03-16T23:25:14;98578.75;;;4.49;100.00
7888;BME280;3989;48.810;9.208;2023-03-16T23:27:41;98563.41;;;4.25;100.00